createdAt,value
2023-01-10T00:02:50.115Z,11.68
2023-01-10T00:05:54.598Z,11.07
2023-01-10T00:08:59.174Z,11.68
2023-01-10T00:12:22.535Z,11.70
2023-01-10T00:15:27.045Z,11.40
2023-01-10T00:18:31.267Z,10.57
2023-01-10T00:21:35.579Z,12.02
2023-01-10T00:24:42.271Z,11.18
2023-01-10T00:27:57.815Z,10.98
2023-01-10T00:31:06.966Z,11.20
2023-01-10T00:34:11.328Z,11.32
2023-01-10T00:37:15.843Z,12.93
2023-01-10T00:40:20.270Z,12.50
2023-01-10T00:43:42.912Z,12.77
2023-01-10T00:46:46.866Z,12.40
2023-01-10T00:52:55.115Z,12.60
2023-01-10T00:55:59.805Z,13.18
2023-01-10T00:59:04.875Z,13.13
2023-01-10T01:02:09.214Z,11.32
2023-01-10T01:05:13.597Z,12.45
2023-01-10T01:08:20.574Z,11.95
2023-01-10T01:11:25.405Z,11.50
2023-01-10T01:14:29.765Z,11.63
2023-01-10T01:17:33.915Z,11.57
2023-01-10T01:20:41.303Z,12.50
2023-01-10T01:23:45.535Z,12.07
2023-01-10T01:26:49.663Z,12.35
2023-01-10T01:29:54.211Z,11.98
2023-01-10T01:32:58.636Z,13.75
2023-01-10T01:36:07.608Z,10.98
2023-01-10T01:39:12.274Z,10.95
2023-01-10T01:42:29.285Z,11.43
2023-01-10T01:45:39.681Z,11.55
2023-01-10T01:48:44.373Z,9.60
2023-01-10T01:51:56.980Z,10.95
2023-01-10T01:55:03.548Z,10.18
2023-01-10T01:58:15.717Z,11.75
2023-01-10T02:01:21.089Z,11.07
2023-01-10T02:04:35.471Z,11.95
2023-01-10T02:07:46.111Z,12.57
2023-01-10T02:11:11.530Z,10.52
2023-01-10T02:14:17.520Z,9.93
2023-01-10T02:17:21.662Z,10.35
2023-01-10T02:20:28.456Z,9.60
2023-01-10T02:24:09.998Z,8.80
2023-01-10T02:27:45.043Z,7.70
2023-01-10T02:31:19.730Z,8.52
2023-01-10T02:38:40.716Z,7.60
2023-01-10T02:42:17.599Z,7.25
2023-01-10T02:45:36.473Z,8.43
2023-01-10T02:48:40.866Z,8.25
2023-01-10T02:51:45.040Z,8.07
2023-01-10T02:54:53.288Z,7.68
2023-01-10T02:58:32.447Z,9.45
2023-01-10T03:02:33.532Z,7.88
2023-01-10T03:06:02.149Z,9.05
2023-01-10T03:09:20.334Z,9.32
2023-01-10T03:12:57.047Z,6.72
2023-01-10T03:16:06.124Z,6.90
2023-01-10T03:19:19.773Z,6.60
2023-01-10T03:22:26.842Z,6.90
2023-01-10T03:25:36.828Z,6.75
2023-01-10T03:28:57.728Z,6.53
2023-01-10T03:32:07.324Z,6.28
2023-01-10T03:35:14.450Z,7.40
2023-01-10T03:38:34.369Z,6.78
2023-01-10T03:42:02.720Z,5.43
2023-01-10T03:45:13.537Z,7.55
2023-01-10T03:48:21.003Z,7.57
2023-01-10T03:51:27.995Z,6.63
2023-01-10T03:54:32.638Z,6.53
2023-01-10T03:57:36.748Z,6.05
2023-01-10T04:00:41.725Z,5.45
2023-01-10T04:03:46.609Z,5.25
2023-01-10T04:06:50.960Z,6.30
2023-01-10T04:09:55.739Z,5.60
2023-01-10T04:13:02.613Z,4.85
2023-01-10T04:16:07.740Z,6.85
2023-01-10T04:19:11.812Z,4.97
2023-01-10T04:22:15.975Z,5.85
2023-01-10T04:25:22.276Z,5.03
2023-01-10T04:28:26.948Z,6.45
2023-01-10T04:31:31.105Z,5.18
2023-01-10T04:34:35.288Z,5.75
2023-01-10T04:37:39.999Z,5.28
2023-01-10T04:40:44.842Z,6.60
2023-01-10T04:43:49.775Z,4.60
2023-01-10T04:46:54.048Z,4.90
2023-01-10T04:49:58.197Z,5.18
2023-01-10T04:53:03.633Z,5.30
2023-01-10T04:56:19.665Z,5.13
2023-01-10T04:59:24.027Z,4.90
2023-01-10T05:02:28.391Z,4.25
2023-01-10T05:05:32.935Z,7.47
2023-01-10T05:08:37.519Z,4.85
2023-01-10T05:11:41.940Z,4.60
2023-01-10T05:14:46.122Z,5.22
2023-01-10T05:21:07.781Z,5.43
2023-01-10T05:24:12.297Z,4.88
2023-01-10T05:27:16.908Z,4.85
2023-01-10T05:30:21.520Z,3.92
2023-01-10T05:33:25.939Z,5.38
2023-01-10T05:36:30.187Z,3.92
2023-01-10T05:39:34.644Z,4.40
2023-01-10T05:42:38.939Z,5.15
2023-01-10T05:45:43.811Z,5.05
2023-01-10T05:48:47.837Z,5.43
2023-01-10T05:51:52.015Z,6.15
2023-01-10T05:54:56.456Z,6.15
2023-01-10T05:58:00.895Z,4.70
2023-01-10T06:01:05.455Z,5.00
2023-01-10T06:04:09.946Z,4.70
2023-01-10T06:07:14.114Z,4.45
2023-01-10T06:10:18.618Z,4.38
2023-01-10T06:13:23.818Z,5.30
2023-01-10T06:16:28.411Z,6.60
2023-01-10T06:19:32.724Z,6.18
2023-01-10T06:22:36.752Z,6.00
2023-01-10T06:25:41.753Z,6.05
2023-01-10T06:28:47.126Z,6.00
2023-01-10T06:31:51.820Z,5.18
2023-01-10T06:34:56.168Z,7.93
2023-01-10T06:38:00.359Z,5.03
2023-01-10T06:41:12.980Z,6.53
2023-01-10T06:44:17.375Z,5.65
2023-01-10T06:47:21.793Z,5.60
2023-01-10T06:50:26.337Z,5.15
2023-01-10T06:53:30.799Z,5.97
2023-01-10T06:56:34.943Z,8.65
2023-01-10T06:59:39.237Z,5.22
2023-01-10T07:02:43.480Z,6.32
2023-01-10T07:05:47.800Z,6.88
2023-01-10T07:08:54.869Z,9.38
2023-01-10T07:11:59.353Z,6.20
2023-01-10T07:15:04.856Z,6.05
2023-01-10T07:18:11.920Z,4.75
2023-01-10T07:21:18.177Z,5.68
2023-01-10T07:24:22.418Z,6.05
2023-01-10T07:27:26.802Z,6.22
2023-01-10T07:30:31.237Z,7.35
2023-01-10T07:33:35.592Z,10.82
2023-01-10T07:36:39.769Z,8.20
2023-01-10T07:39:43.922Z,6.88
2023-01-10T07:42:48.487Z,6.43
2023-01-10T07:45:53.004Z,5.60
2023-01-10T07:48:57.203Z,4.57
2023-01-10T07:55:06.251Z,9.05
2023-01-10T07:58:10.622Z,7.43
2023-01-10T08:01:15.349Z,8.50
2023-01-10T08:04:20.796Z,6.53
2023-01-10T08:07:25.060Z,5.88
2023-01-10T08:10:29.294Z,4.93
2023-01-10T08:16:38.892Z,6.03
2023-01-10T08:19:43.381Z,6.40
2023-01-10T08:22:47.758Z,5.43
2023-01-10T08:25:52.864Z,5.13
2023-01-10T08:28:56.991Z,5.63
2023-01-10T08:32:01.252Z,5.97
2023-01-10T08:35:11.837Z,5.40
2023-01-10T08:38:16.352Z,5.93
2023-01-10T08:41:20.884Z,6.18
2023-01-10T08:44:26.677Z,6.68
2023-01-10T08:47:31.008Z,6.85
2023-01-10T08:50:36.207Z,6.50
2023-01-10T08:53:40.581Z,7.05
2023-01-10T08:56:44.997Z,8.05
2023-01-10T08:59:49.190Z,6.93
2023-01-10T09:02:53.757Z,7.15
2023-01-10T09:06:02.298Z,7.43
2023-01-10T09:09:06.464Z,9.90
2023-01-10T09:12:28.736Z,9.18
2023-01-10T09:15:36.051Z,9.10
2023-01-10T09:18:40.222Z,7.13
2023-01-10T09:21:44.389Z,8.40
2023-01-10T09:24:48.866Z,8.02
2023-01-10T09:27:59.157Z,7.18
2023-01-10T09:31:04.441Z,7.40
2023-01-10T09:34:09.119Z,6.95
2023-01-10T09:37:13.361Z,6.63
2023-01-10T09:40:28.508Z,6.93
2023-01-10T09:44:05.179Z,6.88
2023-01-10T09:47:43.707Z,7.15
2023-01-10T09:51:05.155Z,6.97
2023-01-10T09:54:36.277Z,7.10
2023-01-10T09:57:40.976Z,7.35
2023-01-10T10:01:02.592Z,6.35
2023-01-10T10:04:29.633Z,7.15
2023-01-10T10:07:34.174Z,6.72
2023-01-10T10:10:43.762Z,8.18
2023-01-10T10:14:33.999Z,7.07
2023-01-10T10:18:15.206Z,7.45
2023-01-10T10:21:35.760Z,8.65
2023-01-10T10:25:12.160Z,7.47
2023-01-10T10:28:37.350Z,7.78
2023-01-10T10:32:02.184Z,7.35
2023-01-10T10:35:53.221Z,7.28
2023-01-10T10:39:02.219Z,8.70
2023-01-10T10:42:14.828Z,7.80
2023-01-10T10:45:25.469Z,8.15
2023-01-10T10:49:01.181Z,9.77
2023-01-10T10:52:20.168Z,7.85
2023-01-10T10:55:33.309Z,8.70
2023-01-10T10:58:42.100Z,8.10
2023-01-10T11:01:49.690Z,8.25
2023-01-10T11:05:02.121Z,8.05
2023-01-10T11:08:16.302Z,7.88
2023-01-10T11:11:28.273Z,7.50
2023-01-10T11:14:46.708Z,7.72
2023-01-10T11:18:23.939Z,8.32
2023-01-10T11:21:28.534Z,8.43
2023-01-10T11:24:51.507Z,8.77
2023-01-10T11:28:01.010Z,7.85
2023-01-10T11:31:06.670Z,7.63
2023-01-10T11:34:30.008Z,8.35
2023-01-10T11:37:36.360Z,8.82
2023-01-10T11:40:55.665Z,8.77
2023-01-10T11:44:28.020Z,8.50
2023-01-10T11:47:37.981Z,9.95
2023-01-10T11:50:51.318Z,8.43
2023-01-10T11:54:09.879Z,10.90
2023-01-10T11:57:24.749Z,9.13
2023-01-10T12:00:41.143Z,9.23
2023-01-10T12:03:46.971Z,9.65
2023-01-10T12:07:00.049Z,10.20
2023-01-10T12:10:06.241Z,11.00
2023-01-10T12:13:16.247Z,11.20
2023-01-10T12:16:23.730Z,10.27
2023-01-10T12:19:29.613Z,10.10
2023-01-10T12:22:58.825Z,10.23
2023-01-10T12:26:11.497Z,10.40
2023-01-10T12:29:23.903Z,11.43
2023-01-10T12:32:38.195Z,11.52
2023-01-10T12:36:05.548Z,12.82
2023-01-10T12:39:40.595Z,12.93
2023-01-10T12:43:19.402Z,12.13
2023-01-10T12:47:08.366Z,13.63
2023-01-10T12:50:25.832Z,14.02
2023-01-10T12:53:41.219Z,12.48
2023-01-10T12:56:47.906Z,12.75
2023-01-10T12:59:55.059Z,11.35
2023-01-10T13:03:01.129Z,11.70
2023-01-10T13:06:06.110Z,11.68
2023-01-10T13:09:19.872Z,10.88
2023-01-10T13:12:42.349Z,11.02
2023-01-10T13:16:24.279Z,10.73
2023-01-10T13:19:28.959Z,11.15
2023-01-10T13:22:36.556Z,11.02
2023-01-10T13:25:41.415Z,9.65
2023-01-10T13:29:16.035Z,8.75
2023-01-10T13:32:32.372Z,10.45
2023-01-10T13:35:44.865Z,8.32
2023-01-10T13:39:02.941Z,10.20
2023-01-10T13:42:25.864Z,7.90
2023-01-10T13:45:31.577Z,7.55
2023-01-10T13:48:35.810Z,8.85
2023-01-10T13:52:18.898Z,7.13
2023-01-10T13:55:28.694Z,7.50
2023-01-10T13:59:01.136Z,7.10
2023-01-10T14:02:29.878Z,7.00
2023-01-10T14:05:34.368Z,8.02
2023-01-10T14:08:39.727Z,7.30
2023-01-10T14:11:43.895Z,7.70
2023-01-10T14:14:58.320Z,8.52
2023-01-10T14:18:42.398Z,7.30
2023-01-10T14:21:51.669Z,7.55
2023-01-10T14:24:57.110Z,7.40
2023-01-10T14:28:02.931Z,7.72
2023-01-10T14:31:20.690Z,8.30
2023-01-10T14:34:30.435Z,7.97
2023-01-10T14:37:46.303Z,8.02
2023-01-10T14:40:57.012Z,8.50
2023-01-10T14:44:35.104Z,8.27
2023-01-10T14:47:39.370Z,8.07
2023-01-10T14:50:44.394Z,8.65
2023-01-10T14:54:04.285Z,8.65
2023-01-10T14:57:23.968Z,8.20
2023-01-10T15:00:32.041Z,7.78
2023-01-10T15:03:38.501Z,8.82
2023-01-10T15:07:15.568Z,8.90
2023-01-10T15:10:35.113Z,8.43
2023-01-10T15:14:00.138Z,9.13
2023-01-10T15:17:06.704Z,9.40
2023-01-10T15:20:17.056Z,9.95
2023-01-10T15:23:27.080Z,9.70
2023-01-10T15:26:34.110Z,9.40
2023-01-10T15:29:46.880Z,10.00
2023-01-10T15:32:55.025Z,12.10
2023-01-10T15:36:18.693Z,11.50
2023-01-10T15:39:37.307Z,11.48
2023-01-10T15:42:41.795Z,12.02
2023-01-10T15:45:47.718Z,13.75
2023-01-10T15:49:08.926Z,12.63
2023-01-10T15:52:24.536Z,13.45
2023-01-10T15:55:51.025Z,12.68
2023-01-10T15:58:56.811Z,13.95
2023-01-10T16:02:22.999Z,12.85
2023-01-10T16:05:27.272Z,13.07
2023-01-10T16:08:35.301Z,14.57
2023-01-10T16:12:07.577Z,13.80
2023-01-10T16:15:22.841Z,13.38
2023-01-10T16:18:28.044Z,12.45
2023-01-10T16:21:42.035Z,12.25
2023-01-10T16:24:48.262Z,11.90
2023-01-10T16:27:56.125Z,12.82
2023-01-10T16:31:00.658Z,10.68
2023-01-10T16:34:08.220Z,12.23
2023-01-10T16:37:12.599Z,12.32
2023-01-10T16:40:28.541Z,11.57
2023-01-10T16:43:32.992Z,11.07
2023-01-10T16:46:37.628Z,11.35
2023-01-10T16:49:41.861Z,11.48
2023-01-10T16:52:46.398Z,10.90
2023-01-10T16:55:53.008Z,10.68
2023-01-10T16:58:58.094Z,11.55
2023-01-10T17:02:03.635Z,11.52
2023-01-10T17:05:08.733Z,11.43
2023-01-10T17:08:20.311Z,11.25
2023-01-10T17:11:34.446Z,11.48
2023-01-10T17:14:39.280Z,11.93
2023-01-10T17:17:45.025Z,11.48
2023-01-10T17:20:49.630Z,13.20
2023-01-10T17:23:54.020Z,14.98
2023-01-10T17:26:58.527Z,13.40
2023-01-10T17:33:32.430Z,13.80
2023-01-10T17:36:39.574Z,15.48
2023-01-10T17:39:43.952Z,15.50
2023-01-10T17:42:48.699Z,16.90
2023-01-10T17:45:53.404Z,16.52
2023-01-10T17:48:57.769Z,15.45
2023-01-10T17:52:02.587Z,16.20
2023-01-10T17:55:07.775Z,14.73
2023-01-10T17:58:12.758Z,15.00
2023-01-10T18:01:26.211Z,14.88
2023-01-10T18:04:31.309Z,15.40
2023-01-10T18:07:35.668Z,16.63
2023-01-10T18:10:39.996Z,14.60
2023-01-10T18:13:44.224Z,15.70
2023-01-10T18:16:48.772Z,13.48
2023-01-10T18:19:53.461Z,13.63
2023-01-10T18:23:15.987Z,14.52
2023-01-10T18:26:20.900Z,13.32
2023-01-10T18:29:25.349Z,12.90
2023-01-10T18:32:30.281Z,12.32
2023-01-10T18:35:34.505Z,12.38
2023-01-10T18:38:38.753Z,11.77
2023-01-10T18:41:42.967Z,9.70
2023-01-10T18:44:47.368Z,10.85
2023-01-10T18:47:55.411Z,10.77
2023-01-10T18:51:01.541Z,10.75
2023-01-10T18:54:31.115Z,9.90
2023-01-10T18:57:35.693Z,10.45
2023-01-10T19:00:41.753Z,9.88
2023-01-10T19:03:50.255Z,9.57
2023-01-10T19:06:56.782Z,10.68
2023-01-10T19:10:08.652Z,9.75
2023-01-10T19:13:13.248Z,8.18
2023-01-10T19:16:24.564Z,8.40
2023-01-10T19:19:28.965Z,7.28
2023-01-10T19:22:33.223Z,7.00
2023-01-10T19:25:37.292Z,6.88
2023-01-10T19:28:45.471Z,5.57
2023-01-10T19:31:50.633Z,6.22
2023-01-10T19:34:55.501Z,5.28
2023-01-10T19:38:00.011Z,5.30
2023-01-10T19:41:04.676Z,5.35
2023-01-10T19:44:34.153Z,5.45
2023-01-10T19:47:38.766Z,4.88
2023-01-10T19:50:43.587Z,5.13
2023-01-10T19:53:47.967Z,4.65
2023-01-10T19:56:52.326Z,4.38
2023-01-10T19:59:58.072Z,5.07
2023-01-10T20:03:05.386Z,4.82
2023-01-10T20:06:14.243Z,4.72
2023-01-10T20:09:19.209Z,4.47
2023-01-10T20:12:25.106Z,4.00
2023-01-10T20:15:29.567Z,4.18
2023-01-10T20:18:33.812Z,3.33
2023-01-10T20:21:40.330Z,5.43
2023-01-10T20:24:44.369Z,3.63
2023-01-10T20:27:50.692Z,4.03
2023-01-10T20:30:55.280Z,3.55
2023-01-10T20:33:59.748Z,3.92
2023-01-10T20:37:04.200Z,3.83
2023-01-10T20:40:09.809Z,4.03
2023-01-10T20:43:14.888Z,3.78
2023-01-10T20:46:32.054Z,3.88
2023-01-10T20:49:36.611Z,4.18
2023-01-10T20:52:40.915Z,6.07
2023-01-10T20:55:53.442Z,3.45
2023-01-10T20:59:03.613Z,4.00
2023-01-10T21:02:10.993Z,4.28
2023-01-10T21:05:15.676Z,3.65
2023-01-10T21:08:22.379Z,3.97
2023-01-10T21:11:26.670Z,4.70
2023-01-10T21:14:33.629Z,4.65
2023-01-10T21:17:40.332Z,3.30
2023-01-10T21:20:47.151Z,3.72
2023-01-10T21:23:54.708Z,3.55
2023-01-10T21:26:58.726Z,3.50
2023-01-10T21:30:06.106Z,3.90
2023-01-10T21:33:11.285Z,2.92
2023-01-10T21:36:16.643Z,5.75
2023-01-10T21:39:21.037Z,3.03
2023-01-10T21:42:34.497Z,3.45
2023-01-10T21:45:38.937Z,3.85
2023-01-10T21:48:43.897Z,4.07
2023-01-10T21:51:48.603Z,3.38
2023-01-10T21:54:52.775Z,3.42
2023-01-10T21:57:57.034Z,2.97
2023-01-10T22:01:02.688Z,3.13
2023-01-10T22:04:07.315Z,3.22
2023-01-10T22:07:11.659Z,2.88
2023-01-10T22:10:16.471Z,3.28
2023-01-10T22:13:21.772Z,3.33
2023-01-10T22:16:26.263Z,3.83
2023-01-10T22:19:30.490Z,2.80
2023-01-10T22:22:35.140Z,3.22
2023-01-10T22:25:39.449Z,3.75
2023-01-10T22:34:53.608Z,3.13
2023-01-10T22:37:58.251Z,2.95
2023-01-10T22:41:09.297Z,3.03
2023-01-10T22:44:20.234Z,3.55
2023-01-10T22:47:24.596Z,3.33
2023-01-10T22:50:29.104Z,3.40
2023-01-10T22:53:34.427Z,3.88
2023-01-10T22:56:39.184Z,3.75
2023-01-10T22:59:43.259Z,3.75
2023-01-10T23:02:47.617Z,3.88
2023-01-10T23:05:56.859Z,3.47
2023-01-10T23:09:03.721Z,3.40
2023-01-10T23:12:08.434Z,3.92
2023-01-10T23:15:13.103Z,4.40
2023-01-10T23:18:17.964Z,4.00
2023-01-10T23:21:22.284Z,4.20
2023-01-10T23:24:26.453Z,4.35
2023-01-10T23:27:30.548Z,4.18
2023-01-10T23:30:35.359Z,3.47
2023-01-10T23:33:40.021Z,4.38
2023-01-10T23:36:44.294Z,3.85
2023-01-10T23:39:48.274Z,4.18
2023-01-10T23:42:52.678Z,4.75
2023-01-10T23:45:57.167Z,4.57
2023-01-10T23:49:03.111Z,4.35
2023-01-10T23:52:07.282Z,4.97
2023-01-10T23:55:11.554Z,5.95
2023-01-10T23:58:16.976Z,4.88
